Time;durP1;ratioP1;P1;durP2;ratioP2;P2;SDS_P1;SDS_P2;PMS_P1;PMS_P2;Temp;Humidity;BMP_temperature;BMP_pressure;BME280_temperature;BME280_humidity;BME280_pressure;Samples;Min_cycle;Max_cycle;Signal;HPM_P1;HPM_P2
2023/07/04 00:01:33;;;;;;;1.80;0.73;;;23.70;80.80;;;;;;10753195;33;20059;-76
2023/07/04 00:07:35;;;;;;;0.82;0.40;;;23.50;81.00;;;;;;10753521;33;20021;-76
2023/07/04 00:13:38;;;;;;;0.30;0.30;;;23.70;81.40;;;;;;10753666;33;20055;-77
2023/07/04 00:19:40;;;;;;;0.40;0.40;;;24.00;81.60;;;;;;10753096;33;20359;-77
2023/07/04 00:25:43;;;;;;;0.90;0.43;;;24.20;81.80;;;;;;10740472;33;20036;-76
2023/07/04 00:31:45;;;;;;;0.88;0.43;;;24.20;81.90;;;;;;10753722;33;20017;-76
2023/07/04 00:37:47;;;;;;;3.15;0.40;;;24.10;82.10;;;;;;10753547;33;20426;-75
2023/07/04 00:44:08;;;;;;;0.50;0.35;;;24.00;82.10;;;;;;10753292;33;20293;-74
2023/07/04 00:50:13;;;;;;;1.05;0.40;;;24.00;82.10;;;;;;10753191;33;20051;-74
2023/07/04 00:56:16;;;;;;;1.20;0.70;;;24.10;82.20;;;;;;10752694;33;20421;-74
2023/07/04 01:02:21;;;;;;;1.73;0.88;;;24.20;82.40;;;;;;10749682;33;20029;-74
2023/07/04 01:08:32;;;;;;;0.98;0.60;;;24.30;82.30;;;;;;10752624;33;20016;-74
2023/07/04 01:14:48;;;;;;;1.95;0.98;;;24.30;82.60;;;;;;10749430;33;20032;-75
2023/07/04 01:20:52;;;;;;;0.60;0.60;;;24.40;82.40;;;;;;10753548;33;20144;-75
2023/07/04 01:26:54;;;;;;;5.43;1.23;;;24.10;82.70;;;;;;10751289;32;20327;-77
2023/07/04 01:32:57;;;;;;;0.95;0.50;;;23.90;83.20;;;;;;10750517;33;20017;-75
2023/07/04 01:39:00;;;;;;;3.15;1.40;;;23.60;82.60;;;;;;10752529;33;20044;-73
2023/07/04 01:45:05;;;;;;;1.90;1.08;;;23.30;82.30;;;;;;10751399;33;20028;-78
2023/07/04 01:51:07;;;;;;;3.35;1.27;;;23.00;82.00;;;;;;10747973;33;20017;-78
2023/07/04 01:57:10;;;;;;;1.37;0.75;;;23.00;82.90;;;;;;10751349;33;20020;-77
2023/07/04 02:03:12;;;;;;;2.45;1.45;;;23.20;83.20;;;;;;10751793;33;20339;-73
2023/07/04 02:09:16;;;;;;;2.20;1.20;;;23.30;82.40;;;;;;10751250;33;20016;-76
2023/07/04 02:15:18;;;;;;;1.42;0.60;;;22.80;80.80;;;;;;10749920;33;20086;-76
2023/07/04 02:21:21;;;;;;;2.08;1.00;;;22.80;81.80;;;;;;10749664;33;20029;-75
2023/07/04 02:27:23;;;;;;;5.47;0.82;;;22.70;81.80;;;;;;10751792;33;20044;-76
2023/07/04 02:33:25;;;;;;;1.92;0.90;;;22.70;81.90;;;;;;10750421;33;20399;-76
2023/07/04 02:39:29;;;;;;;1.37;0.80;;;22.70;82.20;;;;;;10754501;33;20382;-76
2023/07/04 02:45:31;;;;;;;0.40;0.40;;;22.70;82.20;;;;;;10757346;33;20040;-76
2023/07/04 02:51:34;;;;;;;3.67;0.93;;;22.80;82.50;;;;;;10757004;33;20025;-76
2023/07/04 02:57:37;;;;;;;0.68;0.52;;;23.00;82.40;;;;;;10757538;33;20021;-75
2023/07/04 03:03:39;;;;;;;0.40;0.40;;;23.00;82.30;;;;;;10756046;33;20052;-75
2023/07/04 03:09:41;;;;;;;1.12;0.60;;;23.10;82.40;;;;;;10756051;33;20013;-75
2023/07/04 03:15:44;;;;;;;1.20;0.68;;;23.10;82.30;;;;;;10755863;33;20414;-76
2023/07/04 03:21:46;;;;;;;0.37;0.37;;;23.10;82.60;;;;;;10756336;32;20327;-75
2023/07/04 03:27:49;;;;;;;1.85;0.40;;;23.20;82.70;;;;;;10755926;33;20090;-75
2023/07/04 03:33:52;;;;;;;0.70;0.50;;;23.00;82.90;;;;;;10755423;33;20391;-75
2023/07/04 03:39:56;;;;;;;1.48;0.73;;;23.00;82.80;;;;;;10755760;33;20043;-75
2023/07/04 03:45:58;;;;;;;0.75;0.60;;;22.90;82.80;;;;;;10754170;33;20051;-75
2023/07/04 03:52:00;;;;;;;1.62;0.70;;;22.80;83.20;;;;;;10749948;32;20040;-74
2023/07/04 03:58:03;;;;;;;1.75;0.85;;;22.80;82.80;;;;;;10754789;33;20024;-75
2023/07/04 04:04:05;;;;;;;2.85;0.60;;;22.60;82.80;;;;;;10755082;33;20059;-75
2023/07/04 04:10:07;;;;;;;5.37;0.73;;;22.60;83.10;;;;;;10754979;33;20035;-76
2023/07/04 04:16:09;;;;;;;3.92;0.93;;;22.60;83.10;;;;;;10754384;33;20079;-76
2023/07/04 04:22:11;;;;;;;1.05;0.80;;;22.70;83.00;;;;;;10754283;33;20428;-76
2023/07/04 04:28:13;;;;;;;4.97;1.30;;;22.80;82.80;;;;;;10754631;33;20029;-76
2023/07/04 04:34:17;;;;;;;0.65;0.55;;;22.90;82.60;;;;;;10754361;33;20413;-75
2023/07/04 04:40:37;;;;;;;0.93;0.73;;;22.90;82.50;;;;;;10752410;33;20399;-75
2023/07/04 04:46:44;;;;;;;1.87;1.12;;;22.80;82.30;;;;;;10754000;33;20415;-75
2023/07/04 04:52:47;;;;;;;1.20;0.93;;;22.60;82.60;;;;;;10753677;33;20025;-75
2023/07/04 04:58:49;;;;;;;0.60;0.52;;;22.60;82.50;;;;;;10753474;33;20024;-74
2023/07/04 05:04:51;;;;;;;1.62;1.00;;;22.70;82.50;;;;;;10751282;33;20059;-74
2023/07/04 05:11:07;;;;;;;3.37;1.50;;;22.70;82.40;;;;;;10749089;33;20017;-74
2023/07/04 05:17:09;;;;;;;5.65;1.77;;;22.80;82.00;;;;;;10752848;33;20048;-74
2023/07/04 05:23:11;;;;;;;2.08;1.05;;;22.80;81.80;;;;;;10752793;33;20395;-74
2023/07/04 05:29:14;;;;;;;1.55;1.12;;;22.80;81.60;;;;;;10752639;33;20043;-74
2023/07/04 05:35:16;;;;;;;1.05;0.88;;;22.90;81.20;;;;;;10752559;33;20380;-74
2023/07/04 05:41:20;;;;;;;0.90;0.70;;;22.90;81.10;;;;;;10747353;33;20055;-74
2023/07/04 05:47:22;;;;;;;1.83;1.00;;;23.10;81.40;;;;;;10751410;33;20016;-74
2023/07/04 05:53:29;;;;;;;2.62;1.58;;;23.20;81.00;;;;;;10750383;33;20063;-74
2023/07/04 05:59:31;;;;;;;2.97;1.58;;;23.30;80.50;;;;;;10753031;33;20017;-74
2023/07/04 06:05:38;;;;;;;2.72;1.70;;;23.30;80.20;;;;;;10752324;33;20039;-75
2023/07/04 06:11:45;;;;;;;5.28;2.55;;;23.40;80.20;;;;;;10751801;33;20342;-72
2023/07/04 06:17:47;;;;;;;2.83;1.58;;;23.50;79.80;;;;;;10754097;32;20335;-74
2023/07/04 06:23:54;;;;;;;3.70;2.30;;;23.50;78.90;;;;;;10758558;33;20086;-75
2023/07/04 06:29:56;;;;;;;5.43;3.08;;;23.50;79.20;;;;;;10752538;33;20033;-75
2023/07/04 06:35:58;;;;;;;5.32;2.12;;;23.50;78.90;;;;;;10758938;33;20016;-74
2023/07/04 06:42:00;;;;;;;3.15;1.00;;;23.60;78.20;;;;;;10756932;33;20051;-74
2023/07/04 06:48:05;;;;;;;3.20;1.70;;;23.80;78.60;;;;;;10757361;33;20315;-74
2023/07/04 06:54:07;;;;;;;3.70;2.55;;;24.00;77.60;;;;;;10987120;32;20053;-73
2023/07/04 07:00:10;;;;;;;2.72;1.52;;;24.10;77.10;;;;;;10985708;32;20383;-75
2023/07/04 07:06:13;;;;;;;2.90;1.45;;;24.20;76.60;;;;;;10986292;32;20019;-75
2023/07/04 07:12:15;;;;;;;3.17;1.85;;;24.30;76.30;;;;;;10986035;32;20333;-75
2023/07/04 07:18:17;;;;;;;1.62;1.08;;;24.30;76.70;;;;;;10986331;32;20023;-75
2023/07/04 07:24:19;;;;;;;3.15;1.58;;;24.50;76.30;;;;;;10985299;32;20333;-73
2023/07/04 07:30:21;;;;;;;1.98;1.45;;;24.70;76.00;;;;;;10506426;32;13173032;-75
2023/07/04 07:36:47;;;;;;;1.37;0.88;;;24.80;75.60;;;;;;10870626;32;20027;-74
2023/07/04 07:42:48;;;;;;;5.10;1.98;;;24.90;75.20;;;;;;10868731;32;20066;-75
2023/07/04 07:48:51;;;;;;;3.03;1.95;;;25.00;74.60;;;;;;10871814;32;20028;-75
2023/07/04 07:54:54;;;;;;;2.42;1.40;;;25.20;74.50;;;;;;10871661;32;20019;-74
2023/07/04 08:00:56;;;;;;;3.65;1.75;;;25.30;74.00;;;;;;10871362;32;20050;-72
2023/07/04 08:06:58;;;;;;;4.60;1.30;;;25.30;74.90;;;;;;10831906;32;20346;-72
2023/07/04 08:13:00;;;;;;;4.85;1.30;;;25.50;73.40;;;;;;10853380;32;20063;-76
2023/07/04 08:19:02;;;;;;;2.10;1.25;;;25.50;72.90;;;;;;10869344;32;20406;-73
2023/07/04 08:25:05;;;;;;;1.12;0.77;;;25.60;72.80;;;;;;10871231;32;20059;-74
2023/07/04 08:31:08;;;;;;;1.30;0.68;;;25.70;72.30;;;;;;10861478;32;20434;-74
2023/07/04 08:37:10;;;;;;;2.45;1.10;;;25.80;72.20;;;;;;10754444;33;20060;-74
2023/07/04 08:43:13;;;;;;;1.27;0.75;;;25.80;71.40;;;;;;10753425;33;20063;-75
2023/07/04 08:49:43;;;;;;;1.75;1.20;;;26.00;71.50;;;;;;10803576;32;20048;-74
2023/07/04 08:55:58;;;;;;;1.25;0.88;;;26.20;72.60;;;;;;10752512;33;20025;-75
2023/07/04 09:02:30;;;;;;;1.80;0.80;;;26.40;70.90;;;;;;10752898;33;20430;-75
2023/07/04 09:08:57;;;;;;;2.47;1.00;;;26.50;69.90;;;;;;10802922;32;20012;-74
2023/07/04 09:15:12;;;;;;;5.85;1.30;;;26.40;69.50;;;;;;10752550;33;20025;-74
2023/07/04 09:21:19;;;;;;;1.40;0.85;;;26.40;70.10;;;;;;10748367;33;20025;-74
2023/07/04 09:27:21;;;;;;;4.55;0.95;;;26.60;69.10;;;;;;10752078;33;20389;-73
2023/07/04 09:33:25;;;;;;;3.85;1.33;;;26.80;68.40;;;;;;10751992;33;20024;-74
2023/07/04 09:39:48;;;;;;;1.58;1.10;;;26.80;68.10;;;;;;10751798;33;20301;-74
2023/07/04 09:45:51;;;;;;;1.27;0.73;;;27.10;69.10;;;;;;10749859;33;20056;-74
2023/07/04 09:51:58;;;;;;;0.85;0.75;;;27.30;69.00;;;;;;10801257;32;20043;-74
2023/07/04 09:58:20;;;;;;;0.80;0.68;;;27.40;69.50;;;;;;10751389;33;20056;-75
2023/07/04 10:04:33;;;;;;;1.83;0.93;;;27.60;71.30;;;;;;10751118;33;20339;-73
2023/07/04 10:10:48;;;;;;;0.47;0.43;;;27.80;72.00;;;;;;10797201;32;20029;-73
2023/07/04 10:16:51;;;;;;;1.50;0.80;;;27.80;70.10;;;;;;10750757;33;20052;-73
2023/07/04 10:22:53;;;;;;;1.80;1.05;;;27.90;69.50;;;;;;10749650;33;20055;-74
2023/07/04 10:28:55;;;;;;;1.12;0.52;;;28.00;69.60;;;;;;10800383;32;20213;-74
2023/07/04 10:34:58;;;;;;;2.10;1.05;;;28.20;69.40;;;;;;10746551;33;20029;-74
2023/07/04 10:41:29;;;;;;;1.65;0.88;;;28.30;70.10;;;;;;10750359;33;20024;-74
2023/07/04 10:47:39;;;;;;;1.33;0.98;;;28.40;69.00;;;;;;10746550;32;20446;-75
2023/07/04 10:53:49;;;;;;;2.08;0.85;;;28.70;69.30;;;;;;10750204;33;20056;-74
2023/07/04 10:59:57;;;;;;;1.70;0.82;;;28.80;68.10;;;;;;10802971;32;20060;-74
2023/07/04 11:06:01;;;;;;;2.60;1.40;;;29.00;66.90;;;;;;10806698;32;20394;-75
2023/07/04 11:12:18;;;;;;;1.83;0.88;;;29.20;67.20;;;;;;10755951;33;20044;-74
2023/07/04 11:18:26;;;;;;;1.73;1.17;;;29.40;67.00;;;;;;10755854;33;20353;-75
2023/07/04 11:24:46;;;;;;;2.15;1.05;;;29.60;69.50;;;;;;10755559;33;20395;-74
2023/07/04 11:30:50;;;;;;;2.40;0.95;;;29.70;68.80;;;;;;10806092;32;20029;-73
2023/07/04 11:36:58;;;;;;;0.77;0.70;;;29.80;65.70;;;;;;10755384;33;20029;-74
2023/07/04 11:43:05;;;;;;;2.03;0.90;;;29.90;65.50;;;;;;10755009;33;20047;-74
2023/07/04 11:56:42;;;;;;;1.15;0.80;;;30.40;63.20;;;;;;10868127;32;20019;-74
2023/07/04 12:02:44;;;;;;;3.12;0.95;;;30.80;62.60;;;;;;10850256;32;20330;-74
2023/07/04 12:08:50;;;;;;;0.68;0.40;;;30.90;61.60;;;;;;10866208;32;20046;-74
2023/07/04 12:15:08;;;;;;;1.30;0.45;;;31.10;61.10;;;;;;10866284;32;20023;-74
2023/07/04 12:21:11;;;;;;;1.92;0.90;;;31.10;60.30;;;;;;10853434;32;20042;-75
2023/07/04 12:27:13;;;;;;;2.47;1.08;;;31.20;59.40;;;;;;10865977;32;20043;-74
2023/07/04 12:33:39;;;;;;;3.40;0.55;;;31.30;59.40;;;;;;10863604;32;20032;-74
2023/07/04 12:40:04;;;;;;;1.25;0.73;;;31.30;60.70;;;;;;10865716;32;20081;-73
2023/07/04 12:46:13;;;;;;;2.40;0.50;;;31.30;58.60;;;;;;10865155;32;20043;-74
2023/07/04 12:52:16;;;;;;;1.85;0.98;;;31.20;58.50;;;;;;10852606;32;20016;-74
2023/07/04 12:58:18;;;;;;;0.93;0.60;;;31.30;58.10;;;;;;10864677;32;20046;-75
2023/07/04 13:04:21;;;;;;;0.93;0.60;;;31.40;58.30;;;;;;10799143;32;20024;-75
2023/07/04 13:10:37;;;;;;;1.35;0.40;;;31.30;59.10;;;;;;10752698;33;20020;-75
2023/07/04 13:16:40;;;;;;;0.57;0.40;;;31.40;58.70;;;;;;10752302;33;20047;-74
2023/07/04 13:22:42;;;;;;;0.93;0.60;;;31.40;58.00;;;;;;10752164;33;20021;-74
2023/07/04 13:28:58;;;;;;;0.77;0.52;;;31.50;57.50;;;;;;10751933;33;20051;-75
2023/07/04 13:35:27;;;;;;;0.75;0.40;;;31.50;58.00;;;;;;10751883;33;20024;-74
2023/07/04 13:41:29;;;;;;;2.20;1.00;;;31.60;57.60;;;;;;10751695;33;20025;-74
2023/07/04 13:47:36;;;;;;;1.00;0.70;;;31.60;56.50;;;;;;10751721;33;20052;-74
2023/07/04 13:53:39;;;;;;;1.75;0.73;;;31.60;56.10;;;;;;10751596;33;20017;-74
2023/07/04 13:59:41;;;;;;;1.62;0.85;;;31.50;55.00;;;;;;10751425;33;20047;-74
2023/07/04 14:05:44;;;;;;;3.85;0.68;;;31.50;55.20;;;;;;10802770;32;20257;-74
2023/07/04 14:11:46;;;;;;;0.77;0.60;;;31.40;56.30;;;;;;10799299;32;20025;-74
2023/07/04 14:17:48;;;;;;;4.53;0.70;;;31.40;56.20;;;;;;10802143;32;20039;-74
2023/07/04 14:23:50;;;;;;;2.30;1.02;;;31.50;56.40;;;;;;10798336;32;20045;-74
2023/07/04 14:29:52;;;;;;;1.25;1.00;;;31.40;56.50;;;;;;10750649;33;20437;-74
2023/07/04 14:35:54;;;;;;;1.15;0.70;;;31.50;56.50;;;;;;10754537;33;20048;-74
2023/07/04 14:41:58;;;;;;;1.33;0.70;;;31.40;57.00;;;;;;10756615;33;20362;-74
2023/07/04 14:48:01;;;;;;;2.08;0.93;;;31.40;56.60;;;;;;10759392;32;20127;-74
2023/07/04 14:54:04;;;;;;;1.65;0.40;;;31.50;56.40;;;;;;10806028;32;20047;-74
2023/07/04 15:00:07;;;;;;;1.80;0.73;;;31.50;56.80;;;;;;10751825;33;20305;-74
2023/07/04 15:06:09;;;;;;;2.75;1.10;;;31.40;56.00;;;;;;10798583;32;20029;-74
2023/07/04 15:12:11;;;;;;;0.98;0.70;;;31.30;56.20;;;;;;10755883;33;20016;-74
2023/07/04 15:18:13;;;;;;;1.02;0.73;;;31.40;56.20;;;;;;10755849;33;20013;-74
2023/07/04 15:24:15;;;;;;;2.30;0.95;;;31.40;56.30;;;;;;10755554;33;20025;-75
2023/07/04 15:30:17;;;;;;;1.48;0.75;;;31.40;57.00;;;;;;10756525;27;20024;-75
2023/07/04 15:36:19;;;;;;;0.70;0.40;;;31.40;61.70;;;;;;10746094;33;20037;-74
2023/07/04 15:42:21;;;;;;;0.77;0.47;;;31.30;60.00;;;;;;10750538;33;20048;-74
2023/07/04 15:48:24;;;;;;;1.25;0.82;;;31.30;58.60;;;;;;10754158;33;20025;-75
2023/07/04 15:54:26;;;;;;;1.95;0.80;;;31.40;59.40;;;;;;10754946;33;20032;-75
2023/07/04 16:00:29;;;;;;;3.35;1.15;;;31.40;59.60;;;;;;10751458;33;20059;-74
2023/07/04 16:06:31;;;;;;;2.42;1.27;;;31.40;59.80;;;;;;10753448;33;20407;-74
2023/07/04 16:12:33;;;;;;;2.72;1.58;;;31.50;61.10;;;;;;10754148;33;20028;-74
2023/07/04 16:18:36;;;;;;;0.98;0.85;;;31.40;59.50;;;;;;10754741;33;20008;-75
2023/07/04 16:24:38;;;;;;;1.40;0.90;;;31.40;60.30;;;;;;10753410;33;20033;-74
2023/07/04 16:30:43;;;;;;;2.03;0.70;;;31.40;60.50;;;;;;10753601;33;20024;-76
2023/07/04 16:36:48;;;;;;;1.55;0.85;;;31.40;59.60;;;;;;10752752;32;20028;-74
2023/07/04 16:42:51;;;;;;;3.58;1.25;;;31.50;59.30;;;;;;10749445;33;20047;-74
2023/07/04 16:48:53;;;;;;;2.10;1.10;;;31.60;59.20;;;;;;10753611;33;20028;-74
2023/07/04 16:54:55;;;;;;;1.12;0.88;;;31.50;58.30;;;;;;10752812;33;20025;-74
2023/07/04 17:01:00;;;;;;;4.72;1.30;;;31.40;59.70;;;;;;10748458;33;20415;-74
2023/07/04 17:07:04;;;;;;;2.12;1.00;;;31.40;60.00;;;;;;10746661;33;20407;-74
2023/07/04 17:13:07;;;;;;;2.20;1.35;;;31.30;60.30;;;;;;10748825;33;20067;-72
2023/07/04 17:19:09;;;;;;;1.25;0.98;;;31.30;62.00;;;;;;10737858;33;20033;-72
2023/07/04 17:25:12;;;;;;;3.15;1.17;;;31.30;61.00;;;;;;10715394;33;20378;-73
2023/07/04 17:31:14;;;;;;;3.35;2.00;;;31.20;61.10;;;;;;10740079;33;20028;-73
2023/07/04 17:37:16;;;;;;;2.95;1.85;;;31.20;61.00;;;;;;10751959;33;20051;-73
2023/07/04 17:43:18;;;;;;;3.05;1.73;;;31.10;61.90;;;;;;10747744;33;20067;-73
2023/07/04 17:49:20;;;;;;;2.55;1.67;;;30.90;62.30;;;;;;10748462;33;21440;-72
2023/07/04 17:55:22;;;;;;;1.83;1.10;;;31.00;61.50;;;;;;10736258;33;20339;-73
2023/07/04 18:01:48;;;;;;;4.00;2.03;;;31.40;61.00;;;;;;10740053;33;20032;-73
2023/07/04 18:07:53;;;;;;;4.97;1.45;;;32.10;60.10;;;;;;10789192;32;20039;-72
2023/07/04 18:14:02;;;;;;;2.92;1.60;;;31.50;61.40;;;;;;10784553;33;20102;-73
2023/07/04 18:20:05;;;;;;;4.95;1.70;;;31.00;63.30;;;;;;10785042;33;20044;-73
2023/07/04 18:26:07;;;;;;;2.65;1.33;;;30.70;64.20;;;;;;10786171;33;20040;-72
2023/07/04 18:32:09;;;;;;;2.03;1.25;;;30.40;64.40;;;;;;10787407;33;20031;-72
2023/07/04 18:38:11;;;;;;;5.05;1.50;;;30.30;64.90;;;;;;10789634;33;20028;-72
2023/07/04 18:44:36;;;;;;;2.92;1.58;;;30.20;65.20;;;;;;10724882;33;20056;-72
2023/07/04 18:50:38;;;;;;;2.62;1.25;;;30.00;65.40;;;;;;10714592;33;20044;-72
2023/07/04 18:56:42;;;;;;;2.30;1.20;;;29.90;66.20;;;;;;10714006;33;20047;-72
2023/07/04 19:02:45;;;;;;;3.45;1.60;;;29.80;66.50;;;;;;10713550;33;20021;-72
2023/07/04 19:08:49;;;;;;;1.30;1.10;;;29.60;66.70;;;;;;10713457;33;20136;-72
2023/07/04 19:15:12;;;;;;;3.03;1.60;;;29.40;66.80;;;;;;10703885;33;20029;-71
2023/07/04 19:21:19;;;;;;;3.03;1.25;;;29.20;67.40;;;;;;10702082;33;20056;-72
2023/07/04 19:27:21;;;;;;;2.80;1.50;;;29.10;68.10;;;;;;10716906;33;20029;-73
2023/07/04 19:33:24;;;;;;;3.17;1.60;;;29.00;68.90;;;;;;10706505;33;20145;-73
2023/07/04 19:39:38;;;;;;;5.57;1.30;;;28.90;70.30;;;;;;10718622;33;20029;-72
2023/07/04 19:45:40;;;;;;;2.08;1.37;;;28.80;70.60;;;;;;10718719;33;20025;-73
2023/07/04 19:51:42;;;;;;;2.10;1.17;;;28.80;70.60;;;;;;10717540;33;20044;-72
2023/07/04 19:57:44;;;;;;;1.33;1.00;;;28.80;71.60;;;;;;10705491;33;20048;-72
2023/07/04 20:03:46;;;;;;;1.52;1.20;;;28.60;72.40;;;;;;10718394;33;20043;-72
2023/07/04 20:09:55;;;;;;;2.62;1.33;;;28.60;73.30;;;;;;10731995;33;20029;-72
2023/07/04 20:15:58;;;;;;;3.25;1.27;;;28.60;73.50;;;;;;10754281;33;20020;-72
2023/07/04 20:22:01;;;;;;;2.78;1.50;;;28.60;74.10;;;;;;10753933;33;20025;-72
2023/07/04 20:28:05;;;;;;;3.95;1.90;;;28.50;74.10;;;;;;10753869;33;20051;-72
2023/07/04 20:34:08;;;;;;;2.33;1.20;;;28.30;74.00;;;;;;10740114;33;20351;-72
2023/07/04 20:40:10;;;;;;;4.60;2.05;;;28.30;74.70;;;;;;10753479;33;20012;-71
2023/07/04 20:46:12;;;;;;;2.53;1.30;;;28.20;75.30;;;;;;10753235;33;20454;-71
2023/07/04 20:52:15;;;;;;;1.40;0.80;;;28.20;75.20;;;;;;10753039;33;20043;-72
2023/07/04 20:58:18;;;;;;;2.22;1.40;;;28.20;75.40;;;;;;10753091;33;20044;-71
2023/07/04 21:04:21;;;;;;;3.42;1.08;;;28.20;75.70;;;;;;10752936;33;20043;-72
2023/07/04 21:10:26;;;;;;;2.75;1.40;;;28.20;75.50;;;;;;10752832;33;20059;-72
2023/07/04 21:16:36;;;;;;;1.33;1.02;;;28.00;76.00;;;;;;10753364;33;20355;-71
2023/07/04 21:22:39;;;;;;;4.12;0.98;;;28.00;76.90;;;;;;10752338;33;20032;-72
2023/07/04 21:28:41;;;;;;;2.67;1.55;;;28.00;77.00;;;;;;10752398;33;20120;-71
2023/07/04 21:34:43;;;;;;;2.00;0.95;;;28.10;76.90;;;;;;10739208;32;20029;-71
2023/07/04 21:40:57;;;;;;;3.22;1.15;;;28.10;76.60;;;;;;10749251;33;20051;-71
2023/07/04 21:46:59;;;;;;;1.65;1.02;;;28.00;77.10;;;;;;10752206;33;20043;-71
2023/07/04 21:53:01;;;;;;;2.75;1.70;;;27.90;77.00;;;;;;10751498;32;20070;-71
2023/07/04 21:59:04;;;;;;;1.85;1.02;;;27.80;77.00;;;;;;10738712;32;20020;-71
2023/07/04 22:05:06;;;;;;;2.65;1.58;;;27.70;77.30;;;;;;10751183;33;20044;-71
2023/07/04 22:11:11;;;;;;;1.85;1.25;;;27.60;78.30;;;;;;10751187;33;20024;-71
2023/07/04 22:17:13;;;;;;;1.65;1.27;;;27.60;78.50;;;;;;10738082;33;20063;-71
2023/07/04 22:23:15;;;;;;;2.80;1.55;;;27.60;77.90;;;;;;10750983;33;20028;-71
2023/07/04 22:29:17;;;;;;;1.12;0.88;;;27.50;77.80;;;;;;10746931;33;20020;-71
2023/07/04 22:35:20;;;;;;;2.15;1.40;;;27.40;78.90;;;;;;10750681;33;20029;-72
2023/07/04 22:41:22;;;;;;;2.17;1.17;;;27.30;79.50;;;;;;10750437;33;20056;-72
2023/07/04 22:47:25;;;;;;;2.70;1.00;;;27.20;79.90;;;;;;10750436;33;20025;-72
2023/07/04 22:53:27;;;;;;;3.95;1.85;;;27.20;79.70;;;;;;10750412;33;20017;-71
2023/07/04 22:59:29;;;;;;;2.55;1.73;;;27.30;79.20;;;;;;10756633;33;20021;-71
2023/07/04 23:05:34;;;;;;;2.20;1.23;;;27.30;78.80;;;;;;10756373;33;20051;-71
2023/07/04 23:11:36;;;;;;;3.08;1.58;;;27.30;78.90;;;;;;10756242;33;20047;-71
2023/07/04 23:17:38;;;;;;;3.62;2.08;;;27.10;79.60;;;;;;10755964;33;20091;-71
2023/07/04 23:23:45;;;;;;;4.05;2.53;;;27.10;79.70;;;;;;10755861;33;20029;-71
2023/07/04 23:29:51;;;;;;;3.50;1.90;;;27.00;79.50;;;;;;10745671;27;20029;-71
2023/07/04 23:35:58;;;;;;;1.95;1.20;;;27.00;80.00;;;;;;10755557;33;20047;-71
2023/07/04 23:42:00;;;;;;;3.55;2.17;;;26.90;80.30;;;;;;10755399;33;20441;-71
2023/07/04 23:48:03;;;;;;;4.12;2.55;;;26.90;80.00;;;;;;10755215;33;20082;-71
2023/07/04 23:54:05;;;;;;;4.30;2.30;;;26.90;79.80;;;;;;10754947;33;20039;-71
